sensor_id;sensor_type;location;lat;lon;timestamp;temperature;humidity
14749;DHT22;7466;53.574;9.976;2023-07-09T00:02:13;19.60;99.90
14749;DHT22;7466;53.574;9.976;2023-07-09T00:04:40;19.60;99.90
14749;DHT22;7466;53.574;9.976;2023-07-09T00:07:15;19.60;99.90
14749;DHT22;7466;53.574;9.976;2023-07-09T00:09:44;19.60;99.90
14749;DHT22;7466;53.574;9.976;2023-07-09T00:12:17;19.60;99.90
14749;DHT22;7466;53.574;9.976;2023-07-09T00:14:44;19.60;99.90
14749;DHT22;7466;53.574;9.976;2023-07-09T00:17:16;19.60;99.90
14749;DHT22;7466;53.574;9.976;2023-07-09T00:19:45;19.50;99.90
14749;DHT22;7466;53.574;9.976;2023-07-09T00:22:15;19.40;99.90
14749;DHT22;7466;53.574;9.976;2023-07-09T00:24:48;19.50;99.90
14749;DHT22;7466;53.574;9.976;2023-07-09T00:27:18;19.40;99.90
14749;DHT22;7466;53.574;9.976;2023-07-09T00:29:45;19.30;99.90
14749;DHT22;7466;53.574;9.976;2023-07-09T00:32:13;19.30;99.90
14749;DHT22;7466;53.574;9.976;2023-07-09T00:34:42;19.30;99.90
14749;DHT22;7466;53.574;9.976;2023-07-09T00:37:15;19.30;99.90
14749;DHT22;7466;53.574;9.976;2023-07-09T00:39:43;19.20;99.90
14749;DHT22;7466;53.574;9.976;2023-07-09T00:42:15;19.20;99.90
14749;DHT22;7466;53.574;9.976;2023-07-09T00:44:44;19.20;99.90
14749;DHT22;7466;53.574;9.976;2023-07-09T00:47:38;19.20;99.90
14749;DHT22;7466;53.574;9.976;2023-07-09T00:50:15;19.10;99.90
14749;DHT22;7466;53.574;9.976;2023-07-09T00:52:49;19.10;99.90
14749;DHT22;7466;53.574;9.976;2023-07-09T00:55:19;19.10;99.90
14749;DHT22;7466;53.574;9.976;2023-07-09T00:57:51;19.00;99.90
14749;DHT22;7466;53.574;9.976;2023-07-09T01:00:25;19.10;99.90
14749;DHT22;7466;53.574;9.976;2023-07-09T01:02:53;19.00;99.90
14749;DHT22;7466;53.574;9.976;2023-07-09T01:05:21;19.00;99.90
14749;DHT22;7466;53.574;9.976;2023-07-09T01:07:48;19.00;99.90
14749;DHT22;7466;53.574;9.976;2023-07-09T01:10:17;18.90;99.90
14749;DHT22;7466;53.574;9.976;2023-07-09T01:12:46;18.90;99.90
14749;DHT22;7466;53.574;9.976;2023-07-09T01:15:16;18.90;99.90
14749;DHT22;7466;53.574;9.976;2023-07-09T01:17:43;18.80;99.90
14749;DHT22;7466;53.574;9.976;2023-07-09T01:20:16;18.80;99.90
14749;DHT22;7466;53.574;9.976;2023-07-09T01:22:48;18.80;99.90
14749;DHT22;7466;53.574;9.976;2023-07-09T01:25:16;18.80;99.90
14749;DHT22;7466;53.574;9.976;2023-07-09T01:27:45;18.70;99.90
14749;DHT22;7466;53.574;9.976;2023-07-09T01:30:15;18.80;99.90
14749;DHT22;7466;53.574;9.976;2023-07-09T01:32:42;18.70;99.90
14749;DHT22;7466;53.574;9.976;2023-07-09T01:35:12;18.70;99.90
14749;DHT22;7466;53.574;9.976;2023-07-09T01:37:41;18.60;99.90
14749;DHT22;7466;53.574;9.976;2023-07-09T01:40:12;18.60;99.90
14749;DHT22;7466;53.574;9.976;2023-07-09T01:42:39;18.70;99.90
14749;DHT22;7466;53.574;9.976;2023-07-09T01:45:08;18.60;99.90
14749;DHT22;7466;53.574;9.976;2023-07-09T01:47:37;18.60;99.90
14749;DHT22;7466;53.574;9.976;2023-07-09T01:50:04;18.50;99.90
14749;DHT22;7466;53.574;9.976;2023-07-09T01:52:32;18.50;99.90
14749;DHT22;7466;53.574;9.976;2023-07-09T01:55:00;18.50;99.90
14749;DHT22;7466;53.574;9.976;2023-07-09T01:57:30;18.40;99.90
14749;DHT22;7466;53.574;9.976;2023-07-09T02:00:01;18.50;99.90
14749;DHT22;7466;53.574;9.976;2023-07-09T02:02:29;18.40;99.90
14749;DHT22;7466;53.574;9.976;2023-07-09T02:04:58;18.40;99.90
14749;DHT22;7466;53.574;9.976;2023-07-09T02:07:25;18.40;99.90
14749;DHT22;7466;53.574;9.976;2023-07-09T02:09:52;18.40;99.90
14749;DHT22;7466;53.574;9.976;2023-07-09T02:12:19;18.30;99.90
14749;DHT22;7466;53.574;9.976;2023-07-09T02:14:48;18.30;99.90
14749;DHT22;7466;53.574;9.976;2023-07-09T02:17:15;18.30;99.90
14749;DHT22;7466;53.574;9.976;2023-07-09T02:19:42;18.30;99.90
14749;DHT22;7466;53.574;9.976;2023-07-09T02:22:09;18.20;99.90
14749;DHT22;7466;53.574;9.976;2023-07-09T02:24:36;18.20;99.90
14749;DHT22;7466;53.574;9.976;2023-07-09T02:27:07;18.20;99.90
14749;DHT22;7466;53.574;9.976;2023-07-09T02:29:36;18.20;99.90
14749;DHT22;7466;53.574;9.976;2023-07-09T02:32:06;18.10;99.90
14749;DHT22;7466;53.574;9.976;2023-07-09T02:34:33;18.10;99.90
14749;DHT22;7466;53.574;9.976;2023-07-09T02:37:01;18.10;99.90
14749;DHT22;7466;53.574;9.976;2023-07-09T02:39:28;18.10;99.90
14749;DHT22;7466;53.574;9.976;2023-07-09T02:41:54;18.10;99.90
14749;DHT22;7466;53.574;9.976;2023-07-09T02:44:21;18.00;99.90
14749;DHT22;7466;53.574;9.976;2023-07-09T02:46:48;18.00;99.90
14749;DHT22;7466;53.574;9.976;2023-07-09T02:49:17;18.00;99.90
14749;DHT22;7466;53.574;9.976;2023-07-09T02:51:44;18.00;99.90
14749;DHT22;7466;53.574;9.976;2023-07-09T02:54:11;17.90;99.90
14749;DHT22;7466;53.574;9.976;2023-07-09T02:56:37;17.90;99.90
14749;DHT22;7466;53.574;9.976;2023-07-09T02:59:05;17.90;99.90
14749;DHT22;7466;53.574;9.976;2023-07-09T03:01:31;17.90;99.90
14749;DHT22;7466;53.574;9.976;2023-07-09T03:04:00;17.90;99.90
14749;DHT22;7466;53.574;9.976;2023-07-09T03:06:30;17.80;99.90
14749;DHT22;7466;53.574;9.976;2023-07-09T03:08:59;17.80;99.90
14749;DHT22;7466;53.574;9.976;2023-07-09T03:11:29;17.80;99.90
14749;DHT22;7466;53.574;9.976;2023-07-09T03:13:56;17.70;99.90
14749;DHT22;7466;53.574;9.976;2023-07-09T03:16:23;17.70;99.90
14749;DHT22;7466;53.574;9.976;2023-07-09T03:18:52;17.70;99.90
14749;DHT22;7466;53.574;9.976;2023-07-09T03:21:19;17.70;99.90
14749;DHT22;7466;53.574;9.976;2023-07-09T03:23:47;17.70;99.90
14749;DHT22;7466;53.574;9.976;2023-07-09T03:26:14;17.70;99.90
14749;DHT22;7466;53.574;9.976;2023-07-09T03:28:41;17.70;99.90
14749;DHT22;7466;53.574;9.976;2023-07-09T03:31:08;17.70;99.90
14749;DHT22;7466;53.574;9.976;2023-07-09T03:33:35;17.70;99.90
14749;DHT22;7466;53.574;9.976;2023-07-09T03:36:03;17.60;99.90
14749;DHT22;7466;53.574;9.976;2023-07-09T03:38:31;17.60;99.90
14749;DHT22;7466;53.574;9.976;2023-07-09T03:40:59;17.60;99.90
14749;DHT22;7466;53.574;9.976;2023-07-09T03:43:26;17.60;99.90
14749;DHT22;7466;53.574;9.976;2023-07-09T03:45:53;17.70;99.90
14749;DHT22;7466;53.574;9.976;2023-07-09T03:48:20;17.70;99.90
14749;DHT22;7466;53.574;9.976;2023-07-09T03:50:48;17.70;99.90
14749;DHT22;7466;53.574;9.976;2023-07-09T03:53:17;17.70;99.90
14749;DHT22;7466;53.574;9.976;2023-07-09T03:55:46;17.60;99.90
14749;DHT22;7466;53.574;9.976;2023-07-09T03:58:19;17.70;99.90
14749;DHT22;7466;53.574;9.976;2023-07-09T04:00:45;17.70;99.90
14749;DHT22;7466;53.574;9.976;2023-07-09T04:03:13;17.70;99.90
14749;DHT22;7466;53.574;9.976;2023-07-09T04:05:39;17.70;99.90
14749;DHT22;7466;53.574;9.976;2023-07-09T04:08:06;17.70;99.90
14749;DHT22;7466;53.574;9.976;2023-07-09T04:10:33;17.70;99.90
14749;DHT22;7466;53.574;9.976;2023-07-09T04:13:00;17.70;99.90
14749;DHT22;7466;53.574;9.976;2023-07-09T04:15:29;17.70;99.90
14749;DHT22;7466;53.574;9.976;2023-07-09T04:17:56;17.70;99.90
14749;DHT22;7466;53.574;9.976;2023-07-09T04:20:23;17.70;99.90
14749;DHT22;7466;53.574;9.976;2023-07-09T04:22:50;17.70;99.90
14749;DHT22;7466;53.574;9.976;2023-07-09T04:25:17;17.70;99.90
14749;DHT22;7466;53.574;9.976;2023-07-09T04:27:43;17.70;99.90
14749;DHT22;7466;53.574;9.976;2023-07-09T04:30:13;17.70;99.90
14749;DHT22;7466;53.574;9.976;2023-07-09T04:32:42;17.70;99.90
14749;DHT22;7466;53.574;9.976;2023-07-09T04:35:10;17.70;99.90
14749;DHT22;7466;53.574;9.976;2023-07-09T04:37:37;17.80;99.90
14749;DHT22;7466;53.574;9.976;2023-07-09T04:40:05;17.80;99.90
14749;DHT22;7466;53.574;9.976;2023-07-09T04:42:36;17.90;99.90
14749;DHT22;7466;53.574;9.976;2023-07-09T04:45:04;17.80;99.90
14749;DHT22;7466;53.574;9.976;2023-07-09T04:47:31;17.90;99.90
14749;DHT22;7466;53.574;9.976;2023-07-09T04:49:59;17.90;99.90
14749;DHT22;7466;53.574;9.976;2023-07-09T04:52:26;18.00;99.90
14749;DHT22;7466;53.574;9.976;2023-07-09T04:54:52;18.00;99.90
14749;DHT22;7466;53.574;9.976;2023-07-09T04:57:19;18.10;99.90
14749;DHT22;7466;53.574;9.976;2023-07-09T04:59:46;18.10;99.90
14749;DHT22;7466;53.574;9.976;2023-07-09T05:02:14;18.20;99.90
14749;DHT22;7466;53.574;9.976;2023-07-09T05:04:41;18.30;99.90
14749;DHT22;7466;53.574;9.976;2023-07-09T05:07:09;18.30;99.90
14749;DHT22;7466;53.574;9.976;2023-07-09T05:09:36;18.40;99.90
14749;DHT22;7466;53.574;9.976;2023-07-09T05:12:04;18.40;99.90
14749;DHT22;7466;53.574;9.976;2023-07-09T05:14:31;18.50;99.90
14749;DHT22;7466;53.574;9.976;2023-07-09T05:16:58;18.60;99.90
14749;DHT22;7466;53.574;9.976;2023-07-09T05:19:24;18.60;99.90
14749;DHT22;7466;53.574;9.976;2023-07-09T05:21:51;18.70;99.90
14749;DHT22;7466;53.574;9.976;2023-07-09T05:24:19;18.80;99.90
14749;DHT22;7466;53.574;9.976;2023-07-09T05:26:46;18.90;99.90
14749;DHT22;7466;53.574;9.976;2023-07-09T05:29:13;18.90;99.90
14749;DHT22;7466;53.574;9.976;2023-07-09T05:31:39;19.10;99.90
14749;DHT22;7466;53.574;9.976;2023-07-09T05:34:07;19.10;99.90
14749;DHT22;7466;53.574;9.976;2023-07-09T05:36:34;19.20;99.90
14749;DHT22;7466;53.574;9.976;2023-07-09T05:39:01;19.30;99.90
14749;DHT22;7466;53.574;9.976;2023-07-09T05:41:29;19.40;99.90
14749;DHT22;7466;53.574;9.976;2023-07-09T05:43:56;19.50;99.90
14749;DHT22;7466;53.574;9.976;2023-07-09T05:46:23;19.50;99.90
14749;DHT22;7466;53.574;9.976;2023-07-09T05:48:50;19.60;99.90
14749;DHT22;7466;53.574;9.976;2023-07-09T05:51:17;19.70;99.90
14749;DHT22;7466;53.574;9.976;2023-07-09T05:53:44;19.80;99.90
14749;DHT22;7466;53.574;9.976;2023-07-09T05:56:11;20.00;99.90
14749;DHT22;7466;53.574;9.976;2023-07-09T05:58:39;20.00;99.90
14749;DHT22;7466;53.574;9.976;2023-07-09T06:01:06;20.10;99.90
14749;DHT22;7466;53.574;9.976;2023-07-09T06:03:33;20.20;99.90
14749;DHT22;7466;53.574;9.976;2023-07-09T06:06:00;20.30;99.90
14749;DHT22;7466;53.574;9.976;2023-07-09T06:08:27;20.30;99.90
14749;DHT22;7466;53.574;9.976;2023-07-09T06:10:56;20.40;99.90
14749;DHT22;7466;53.574;9.976;2023-07-09T06:13:24;20.50;99.90
14749;DHT22;7466;53.574;9.976;2023-07-09T06:15:53;20.60;99.90
14749;DHT22;7466;53.574;9.976;2023-07-09T06:18:21;20.70;99.90
14749;DHT22;7466;53.574;9.976;2023-07-09T06:20:49;20.70;99.90
14749;DHT22;7466;53.574;9.976;2023-07-09T06:23:17;20.90;99.90
14749;DHT22;7466;53.574;9.976;2023-07-09T06:25:44;20.90;99.90
14749;DHT22;7466;53.574;9.976;2023-07-09T06:28:13;21.10;99.90
14749;DHT22;7466;53.574;9.976;2023-07-09T06:30:40;21.20;99.90
14749;DHT22;7466;53.574;9.976;2023-07-09T06:33:09;21.20;99.90
14749;DHT22;7466;53.574;9.976;2023-07-09T06:35:36;21.30;99.90
14749;DHT22;7466;53.574;9.976;2023-07-09T06:38:05;21.40;99.90
14749;DHT22;7466;53.574;9.976;2023-07-09T06:40:32;21.60;99.90
14749;DHT22;7466;53.574;9.976;2023-07-09T06:43:00;21.80;99.90
14749;DHT22;7466;53.574;9.976;2023-07-09T06:45:27;22.00;99.90
14749;DHT22;7466;53.574;9.976;2023-07-09T06:47:54;22.20;99.90
14749;DHT22;7466;53.574;9.976;2023-07-09T06:50:23;22.30;99.90
14749;DHT22;7466;53.574;9.976;2023-07-09T06:52:50;22.40;99.90
14749;DHT22;7466;53.574;9.976;2023-07-09T06:55:17;22.50;99.90
14749;DHT22;7466;53.574;9.976;2023-07-09T06:57:44;22.60;99.90
14749;DHT22;7466;53.574;9.976;2023-07-09T07:00:11;22.80;99.90
14749;DHT22;7466;53.574;9.976;2023-07-09T07:02:38;22.80;99.90
14749;DHT22;7466;53.574;9.976;2023-07-09T07:05:06;23.10;99.90
14749;DHT22;7466;53.574;9.976;2023-07-09T07:07:34;23.30;99.90
14749;DHT22;7466;53.574;9.976;2023-07-09T07:10:00;23.40;99.90
14749;DHT22;7466;53.574;9.976;2023-07-09T07:12:29;23.30;99.90
14749;DHT22;7466;53.574;9.976;2023-07-09T07:15:08;23.30;99.90
14749;DHT22;7466;53.574;9.976;2023-07-09T07:17:35;23.30;99.90
14749;DHT22;7466;53.574;9.976;2023-07-09T07:20:02;23.50;99.90
14749;DHT22;7466;53.574;9.976;2023-07-09T07:22:30;23.50;99.90
14749;DHT22;7466;53.574;9.976;2023-07-09T07:24:58;23.50;99.90
14749;DHT22;7466;53.574;9.976;2023-07-09T07:27:24;23.70;99.90
14749;DHT22;7466;53.574;9.976;2023-07-09T07:29:51;23.90;99.90
14749;DHT22;7466;53.574;9.976;2023-07-09T07:32:19;23.70;99.90
14749;DHT22;7466;53.574;9.976;2023-07-09T07:34:46;23.70;99.90
14749;DHT22;7466;53.574;9.976;2023-07-09T07:37:13;23.90;99.90
14749;DHT22;7466;53.574;9.976;2023-07-09T07:39:40;24.10;99.90
14749;DHT22;7466;53.574;9.976;2023-07-09T07:42:08;24.10;99.90
14749;DHT22;7466;53.574;9.976;2023-07-09T07:44:36;24.20;99.90
14749;DHT22;7466;53.574;9.976;2023-07-09T07:47:03;24.30;99.90
14749;DHT22;7466;53.574;9.976;2023-07-09T07:49:30;24.50;99.90
14749;DHT22;7466;53.574;9.976;2023-07-09T07:51:59;24.50;99.90
14749;DHT22;7466;53.574;9.976;2023-07-09T07:54:28;24.70;99.90
14749;DHT22;7466;53.574;9.976;2023-07-09T07:56:57;24.50;99.90
14749;DHT22;7466;53.574;9.976;2023-07-09T07:59:25;24.60;99.90
14749;DHT22;7466;53.574;9.976;2023-07-09T08:01:53;24.60;99.90
14749;DHT22;7466;53.574;9.976;2023-07-09T08:04:19;24.50;99.90
14749;DHT22;7466;53.574;9.976;2023-07-09T08:06:46;24.60;99.90
14749;DHT22;7466;53.574;9.976;2023-07-09T08:09:14;24.80;99.90
14749;DHT22;7466;53.574;9.976;2023-07-09T08:11:41;25.00;99.90
14749;DHT22;7466;53.574;9.976;2023-07-09T08:14:09;25.10;99.90
14749;DHT22;7466;53.574;9.976;2023-07-09T08:16:37;25.20;99.90
14749;DHT22;7466;53.574;9.976;2023-07-09T08:19:04;25.60;99.90
14749;DHT22;7466;53.574;9.976;2023-07-09T08:21:31;25.80;99.90
14749;DHT22;7466;53.574;9.976;2023-07-09T08:23:58;25.60;99.90
14749;DHT22;7466;53.574;9.976;2023-07-09T08:26:24;25.70;99.90
14749;DHT22;7466;53.574;9.976;2023-07-09T08:28:52;25.80;99.90
14749;DHT22;7466;53.574;9.976;2023-07-09T08:31:19;26.00;99.90
14749;DHT22;7466;53.574;9.976;2023-07-09T08:33:47;26.10;99.60
14749;DHT22;7466;53.574;9.976;2023-07-09T08:36:14;26.10;98.40
14749;DHT22;7466;53.574;9.976;2023-07-09T08:38:40;26.00;98.70
14749;DHT22;7466;53.574;9.976;2023-07-09T08:41:12;26.20;98.50
14749;DHT22;7466;53.574;9.976;2023-07-09T08:43:50;26.30;98.60
14749;DHT22;7466;53.574;9.976;2023-07-09T08:46:26;26.40;98.90
14749;DHT22;7466;53.574;9.976;2023-07-09T08:48:57;26.60;98.00
14749;DHT22;7466;53.574;9.976;2023-07-09T08:51:29;26.80;96.00
14749;DHT22;7466;53.574;9.976;2023-07-09T08:54:00;26.90;96.30
14749;DHT22;7466;53.574;9.976;2023-07-09T08:56:29;27.10;95.50
14749;DHT22;7466;53.574;9.976;2023-07-09T08:59:01;27.20;97.10
14749;DHT22;7466;53.574;9.976;2023-07-09T09:01:31;27.30;96.10
14749;DHT22;7466;53.574;9.976;2023-07-09T09:04:05;27.40;96.30
14749;DHT22;7466;53.574;9.976;2023-07-09T09:06:32;27.40;95.80
14749;DHT22;7466;53.574;9.976;2023-07-09T09:09:04;27.40;95.00
14749;DHT22;7466;53.574;9.976;2023-07-09T09:11:42;27.60;94.90
14749;DHT22;7466;53.574;9.976;2023-07-09T09:14:19;27.70;93.50
14749;DHT22;7466;53.574;9.976;2023-07-09T09:16:50;27.90;92.40
14749;DHT22;7466;53.574;9.976;2023-07-09T09:19:23;27.80;93.20
14749;DHT22;7466;53.574;9.976;2023-07-09T09:21:58;28.10;93.80
14749;DHT22;7466;53.574;9.976;2023-07-09T09:24:31;28.00;93.80
14749;DHT22;7466;53.574;9.976;2023-07-09T09:26:59;27.80;94.30
14749;DHT22;7466;53.574;9.976;2023-07-09T09:29:26;27.70;94.60
14749;DHT22;7466;53.574;9.976;2023-07-09T09:31:55;28.10;94.10
14749;DHT22;7466;53.574;9.976;2023-07-09T09:34:25;28.20;94.00
14749;DHT22;7466;53.574;9.976;2023-07-09T09:36:54;28.00;92.60
14749;DHT22;7466;53.574;9.976;2023-07-09T09:39:22;28.30;95.30
14749;DHT22;7466;53.574;9.976;2023-07-09T09:41:53;28.50;92.10
14749;DHT22;7466;53.574;9.976;2023-07-09T09:44:24;28.50;92.40
14749;DHT22;7466;53.574;9.976;2023-07-09T09:46:51;28.70;91.30
14749;DHT22;7466;53.574;9.976;2023-07-09T09:49:19;28.70;92.00
14749;DHT22;7466;53.574;9.976;2023-07-09T09:51:47;28.70;92.30
14749;DHT22;7466;53.574;9.976;2023-07-09T09:54:18;28.90;91.90
14749;DHT22;7466;53.574;9.976;2023-07-09T09:56:47;29.20;91.90
14749;DHT22;7466;53.574;9.976;2023-07-09T09:59:18;29.40;90.20
14749;DHT22;7466;53.574;9.976;2023-07-09T10:01:46;29.30;89.00
14749;DHT22;7466;53.574;9.976;2023-07-09T10:04:17;29.50;90.10
14749;DHT22;7466;53.574;9.976;2023-07-09T10:06:50;29.80;83.70
14749;DHT22;7466;53.574;9.976;2023-07-09T10:09:29;29.80;82.30
14749;DHT22;7466;53.574;9.976;2023-07-09T10:12:08;29.80;87.20
14749;DHT22;7466;53.574;9.976;2023-07-09T10:14:45;29.90;86.60
14749;DHT22;7466;53.574;9.976;2023-07-09T10:17:20;29.90;81.20
14749;DHT22;7466;53.574;9.976;2023-07-09T10:19:53;30.00;84.20
14749;DHT22;7466;53.574;9.976;2023-07-09T10:22:39;30.00;80.60
14749;DHT22;7466;53.574;9.976;2023-07-09T10:25:16;29.90;79.80
14749;DHT22;7466;53.574;9.976;2023-07-09T10:27:58;30.20;80.60
14749;DHT22;7466;53.574;9.976;2023-07-09T10:30:40;30.50;77.40
14749;DHT22;7466;53.574;9.976;2023-07-09T10:33:10;30.50;74.80
14749;DHT22;7466;53.574;9.976;2023-07-09T10:35:41;30.40;76.70
14749;DHT22;7466;53.574;9.976;2023-07-09T10:38:23;30.60;77.50
14749;DHT22;7466;53.574;9.976;2023-07-09T10:40:55;30.90;76.90
14749;DHT22;7466;53.574;9.976;2023-07-09T10:43:37;30.80;77.50
14749;DHT22;7466;53.574;9.976;2023-07-09T10:46:10;31.20;77.60
14749;DHT22;7466;53.574;9.976;2023-07-09T10:48:41;31.00;76.10
14749;DHT22;7466;53.574;9.976;2023-07-09T10:51:17;31.00;76.60
14749;DHT22;7466;53.574;9.976;2023-07-09T10:53:49;31.20;76.40
14749;DHT22;7466;53.574;9.976;2023-07-09T10:56:20;31.20;72.70
14749;DHT22;7466;53.574;9.976;2023-07-09T10:58:52;31.30;71.10
14749;DHT22;7466;53.574;9.976;2023-07-09T11:01:27;31.20;73.30
14749;DHT22;7466;53.574;9.976;2023-07-09T11:03:58;31.50;69.40
14749;DHT22;7466;53.574;9.976;2023-07-09T11:06:31;31.40;70.70
14749;DHT22;7466;53.574;9.976;2023-07-09T11:09:01;31.30;68.40
14749;DHT22;7466;53.574;9.976;2023-07-09T11:11:33;31.50;67.70
14749;DHT22;7466;53.574;9.976;2023-07-09T11:14:03;31.40;69.80
14749;DHT22;7466;53.574;9.976;2023-07-09T11:16:33;31.50;70.00
14749;DHT22;7466;53.574;9.976;2023-07-09T11:19:03;31.50;66.60
14749;DHT22;7466;53.574;9.976;2023-07-09T11:21:57;31.60;67.10
14749;DHT22;7466;53.574;9.976;2023-07-09T11:24:32;31.50;65.50
14749;DHT22;7466;53.574;9.976;2023-07-09T11:26:59;31.80;66.50
14749;DHT22;7466;53.574;9.976;2023-07-09T11:29:27;32.00;63.90
14749;DHT22;7466;53.574;9.976;2023-07-09T11:31:55;32.40;63.40
14749;DHT22;7466;53.574;9.976;2023-07-09T11:34:28;32.60;61.60
14749;DHT22;7466;53.574;9.976;2023-07-09T11:36:57;32.20;63.20
14749;DHT22;7466;53.574;9.976;2023-07-09T11:39:29;32.40;60.40
14749;DHT22;7466;53.574;9.976;2023-07-09T11:41:58;32.20;61.60
14749;DHT22;7466;53.574;9.976;2023-07-09T11:44:26;32.20;63.50
14749;DHT22;7466;53.574;9.976;2023-07-09T11:47:16;32.60;61.90
14749;DHT22;7466;53.574;9.976;2023-07-09T11:49:49;32.90;59.90
14749;DHT22;7466;53.574;9.976;2023-07-09T11:52:22;33.10;59.90
14749;DHT22;7466;53.574;9.976;2023-07-09T11:54:51;33.20;58.40
14749;DHT22;7466;53.574;9.976;2023-07-09T11:57:22;32.90;58.70
14749;DHT22;7466;53.574;9.976;2023-07-09T11:59:49;33.00;59.40
14749;DHT22;7466;53.574;9.976;2023-07-09T12:02:18;33.00;59.50
14749;DHT22;7466;53.574;9.976;2023-07-09T12:04:48;33.20;58.70
14749;DHT22;7466;53.574;9.976;2023-07-09T12:07:16;33.10;56.80
14749;DHT22;7466;53.574;9.976;2023-07-09T12:09:51;33.10;55.40
14749;DHT22;7466;53.574;9.976;2023-07-09T12:12:23;33.60;55.40
14749;DHT22;7466;53.574;9.976;2023-07-09T12:14:52;33.60;54.40
14749;DHT22;7466;53.574;9.976;2023-07-09T12:17:23;33.60;54.60
14749;DHT22;7466;53.574;9.976;2023-07-09T12:19:51;33.50;53.60
14749;DHT22;7466;53.574;9.976;2023-07-09T12:22:20;33.80;52.10
14749;DHT22;7466;53.574;9.976;2023-07-09T12:24:49;34.00;53.50
14749;DHT22;7466;53.574;9.976;2023-07-09T12:27:19;33.80;52.90
14749;DHT22;7466;53.574;9.976;2023-07-09T12:29:51;33.30;52.80
14749;DHT22;7466;53.574;9.976;2023-07-09T12:32:19;33.50;52.50
14749;DHT22;7466;53.574;9.976;2023-07-09T12:34:50;33.80;52.90
14749;DHT22;7466;53.574;9.976;2023-07-09T12:37:19;33.90;51.90
14749;DHT22;7466;53.574;9.976;2023-07-09T12:39:49;33.70;52.00
14749;DHT22;7466;53.574;9.976;2023-07-09T12:42:19;34.10;52.10
14749;DHT22;7466;53.574;9.976;2023-07-09T12:44:48;34.30;49.90
14749;DHT22;7466;53.574;9.976;2023-07-09T12:47:16;34.00;51.30
14749;DHT22;7466;53.574;9.976;2023-07-09T12:49:44;34.70;51.20
14749;DHT22;7466;53.574;9.976;2023-07-09T12:52:17;35.10;50.00
14749;DHT22;7466;53.574;9.976;2023-07-09T12:54:55;35.40;48.40
14749;DHT22;7466;53.574;9.976;2023-07-09T12:57:30;35.70;47.50
14749;DHT22;7466;53.574;9.976;2023-07-09T12:59:59;35.50;47.40
14749;DHT22;7466;53.574;9.976;2023-07-09T13:02:28;35.80;46.90
14749;DHT22;7466;53.574;9.976;2023-07-09T13:05:00;35.10;47.40
14749;DHT22;7466;53.574;9.976;2023-07-09T13:07:31;35.70;49.40
14749;DHT22;7466;53.574;9.976;2023-07-09T13:10:06;36.30;46.50
14749;DHT22;7466;53.574;9.976;2023-07-09T13:12:33;36.50;46.00
14749;DHT22;7466;53.574;9.976;2023-07-09T13:15:02;37.00;44.00
14749;DHT22;7466;53.574;9.976;2023-07-09T13:17:30;36.80;44.10
14749;DHT22;7466;53.574;9.976;2023-07-09T13:19:58;36.80;44.70
14749;DHT22;7466;53.574;9.976;2023-07-09T13:22:27;37.10;44.10
14749;DHT22;7466;53.574;9.976;2023-07-09T13:24:54;36.60;44.70
14749;DHT22;7466;53.574;9.976;2023-07-09T13:27:21;36.60;44.90
14749;DHT22;7466;53.574;9.976;2023-07-09T13:29:48;35.80;46.50
14749;DHT22;7466;53.574;9.976;2023-07-09T13:32:17;35.70;47.20
14749;DHT22;7466;53.574;9.976;2023-07-09T13:34:44;35.80;46.60
14749;DHT22;7466;53.574;9.976;2023-07-09T13:37:13;36.70;45.10
14749;DHT22;7466;53.574;9.976;2023-07-09T13:39:41;36.90;46.20
14749;DHT22;7466;53.574;9.976;2023-07-09T13:42:13;37.00;46.10
14749;DHT22;7466;53.574;9.976;2023-07-09T13:44:43;38.20;42.60
14749;DHT22;7466;53.574;9.976;2023-07-09T13:47:13;37.90;42.20
14749;DHT22;7466;53.574;9.976;2023-07-09T13:49:43;38.70;41.20
14749;DHT22;7466;53.574;9.976;2023-07-09T13:52:15;38.60;41.10
14749;DHT22;7466;53.574;9.976;2023-07-09T13:54:42;38.40;42.10
14749;DHT22;7466;53.574;9.976;2023-07-09T13:57:15;38.30;42.00
14749;DHT22;7466;53.574;9.976;2023-07-09T13:59:42;37.90;42.00
14749;DHT22;7466;53.574;9.976;2023-07-09T14:02:19;37.80;42.20
14749;DHT22;7466;53.574;9.976;2023-07-09T14:04:50;37.80;42.60
14749;DHT22;7466;53.574;9.976;2023-07-09T14:07:27;38.50;41.60
14749;DHT22;7466;53.574;9.976;2023-07-09T14:09:54;39.50;41.10
14749;DHT22;7466;53.574;9.976;2023-07-09T14:12:21;38.50;41.80
14749;DHT22;7466;53.574;9.976;2023-07-09T14:14:49;37.90;41.10
14749;DHT22;7466;53.574;9.976;2023-07-09T14:17:16;39.10;40.70
14749;DHT22;7466;53.574;9.976;2023-07-09T14:19:44;39.00;41.40
14749;DHT22;7466;53.574;9.976;2023-07-09T14:22:21;38.80;43.30
14749;DHT22;7466;53.574;9.976;2023-07-09T14:24:50;38.50;42.10
14749;DHT22;7466;53.574;9.976;2023-07-09T14:27:17;37.50;43.40
14749;DHT22;7466;53.574;9.976;2023-07-09T14:29:44;37.90;41.90
14749;DHT22;7466;53.574;9.976;2023-07-09T14:32:31;37.90;41.40
14749;DHT22;7466;53.574;9.976;2023-07-09T14:34:59;37.50;41.80
14749;DHT22;7466;53.574;9.976;2023-07-09T14:37:28;37.00;42.80
14749;DHT22;7466;53.574;9.976;2023-07-09T14:39:55;36.50;41.50
14749;DHT22;7466;53.574;9.976;2023-07-09T14:42:21;36.60;43.90
14749;DHT22;7466;53.574;9.976;2023-07-09T14:44:49;37.30;42.40
14749;DHT22;7466;53.574;9.976;2023-07-09T14:47:17;38.10;40.90
14749;DHT22;7466;53.574;9.976;2023-07-09T14:49:45;38.20;41.10
14749;DHT22;7466;53.574;9.976;2023-07-09T14:52:13;38.50;39.90
14749;DHT22;7466;53.574;9.976;2023-07-09T14:54:42;38.50;39.80
14749;DHT22;7466;53.574;9.976;2023-07-09T14:57:18;40.00;38.00
14749;DHT22;7466;53.574;9.976;2023-07-09T14:59:46;41.50;36.20
14749;DHT22;7466;53.574;9.976;2023-07-09T15:02:22;41.10;36.20
14749;DHT22;7466;53.574;9.976;2023-07-09T15:04:50;42.20;35.60
14749;DHT22;7466;53.574;9.976;2023-07-09T15:07:16;41.40;35.30
14749;DHT22;7466;53.574;9.976;2023-07-09T15:09:44;40.30;36.50
14749;DHT22;7466;53.574;9.976;2023-07-09T15:12:17;39.80;37.20
14749;DHT22;7466;53.574;9.976;2023-07-09T15:14:45;41.00;36.00
14749;DHT22;7466;53.574;9.976;2023-07-09T15:17:13;41.50;36.00
14749;DHT22;7466;53.574;9.976;2023-07-09T15:19:40;42.50;33.90
14749;DHT22;7466;53.574;9.976;2023-07-09T15:22:19;42.60;33.70
14749;DHT22;7466;53.574;9.976;2023-07-09T15:24:51;41.00;35.30
14749;DHT22;7466;53.574;9.976;2023-07-09T15:27:18;42.20;35.10
14749;DHT22;7466;53.574;9.976;2023-07-09T15:29:45;41.90;35.00
14749;DHT22;7466;53.574;9.976;2023-07-09T15:32:11;41.50;36.70
14749;DHT22;7466;53.574;9.976;2023-07-09T15:34:38;40.90;37.40
14749;DHT22;7466;53.574;9.976;2023-07-09T15:37:11;40.70;37.90
14749;DHT22;7466;53.574;9.976;2023-07-09T15:39:39;41.30;37.30
14749;DHT22;7466;53.574;9.976;2023-07-09T15:42:11;39.50;37.60
14749;DHT22;7466;53.574;9.976;2023-07-09T15:44:38;38.40;40.00
14749;DHT22;7466;53.574;9.976;2023-07-09T15:47:05;37.90;40.70
14749;DHT22;7466;53.574;9.976;2023-07-09T15:49:34;37.40;41.10
14749;DHT22;7466;53.574;9.976;2023-07-09T15:52:01;36.90;41.90
14749;DHT22;7466;53.574;9.976;2023-07-09T15:54:28;36.20;42.80
14749;DHT22;7466;53.574;9.976;2023-07-09T15:56:55;35.30;42.80
14749;DHT22;7466;53.574;9.976;2023-07-09T15:59:28;35.60;42.60